14°C Temp
9°C Dewpoint
72% Humidity
Temperature
0 KM/H
MPH
KTS
Calm
Due North

Wind Speed
Clear
Conditions
Pressure 1015.92 (hPa) - 30 (in)
Visibility 10.0 (mi) - 16.1 (km)

Current Conditions
KSJC
Location 9(km)
Metar :KSJC 220953Z AUTO 00000KT 10SM CLR 14/09 A3000 RMK AO2 SLP157 T01390094
Sun 22nd May 10:53 am

Airport
  Metar Aviation API Data Provided by https://www.checkwx.com/ PHP scripts by weather34.com ©2022